Time;durP1;ratioP1;P1;durP2;ratioP2;P2;SDS_P1;SDS_P2;PMS_P1;PMS_P2;Temp;Humidity;BMP_temperature;BMP_pressure;BME280_temperature;BME280_humidity;BME280_pressure;Samples;Min_cycle;Max_cycle;Signal;HPM_P1;HPM_P2
2022/09/05 00:01:09;;;;;;;3.58;3.20;;;;;;;;;;10302759;28;20075;-66
2022/09/05 00:06:12;;;;;;;4.40;3.00;;;;;;;;;;10302749;28;20116;-66
2022/09/05 00:11:14;;;;;;;3.75;3.42;;;;;;;;;;10304353;28;20072;-65
2022/09/05 00:16:44;;;;;;;3.72;3.33;;;;;;;;;;10302063;28;20497;-65
2022/09/05 00:21:50;;;;;;;4.40;3.53;;;;;;;;;;10303173;28;20482;-65
2022/09/05 00:27:10;;;;;;;3.90;3.30;;;;;;;;;;10303089;28;20171;-65
2022/09/05 00:32:13;;;;;;;6.45;3.53;;;;;;;;;;10301633;28;20578;-66
2022/09/05 00:37:12;;;;;;;6.13;3.50;;;;;;;;;;10301838;28;20045;-65
2022/09/05 00:42:15;;;;;;;4.95;3.97;;;;;;;;;;10302018;28;20471;-66
2022/09/05 00:47:17;;;;;;;4.97;3.90;;;;;;;;;;10302959;28;20041;-64
2022/09/05 00:52:19;;;;;;;5.28;4.03;;;;;;;;;;10288159;28;20083;-66
2022/09/05 00:57:39;;;;;;;6.47;4.30;;;;;;;;;;10279403;28;20533;-65
2022/09/05 01:02:45;;;;;;;5.68;3.95;;;;;;;;;;10287525;28;20494;-65
2022/09/05 01:07:58;;;;;;;4.55;4.15;;;;;;;;;;10309779;28;20045;-66
2022/09/05 01:13:06;;;;;;;5.32;4.20;;;;;;;;;;10315525;28;20072;-65
2022/09/05 01:18:13;;;;;;;4.65;4.25;;;;;;;;;;10296374;28;20592;-66
2022/09/05 01:23:30;;;;;;;4.28;3.85;;;;;;;;;;10298534;28;20064;-65
2022/09/05 01:28:34;;;;;;;4.20;3.67;;;;;;;;;;10298029;28;20092;-65
2022/09/05 01:33:57;;;;;;;4.73;4.33;;;;;;;;;;10300215;28;20613;-64
2022/09/05 01:39:00;;;;;;;5.47;3.85;;;;;;;;;;10300374;28;20064;-62
2022/09/05 01:44:37;;;;;;;5.32;4.65;;;;;;;;;;10299757;28;20083;-62
2022/09/05 01:49:42;;;;;;;4.80;3.80;;;;;;;;;;10295107;28;20041;-62
2022/09/05 01:54:46;;;;;;;7.05;3.83;;;;;;;;;;10300429;28;20070;-62
2022/09/05 01:59:48;;;;;;;8.47;4.13;;;;;;;;;;10297513;28;20068;-61
2022/09/05 02:04:56;;;;;;;6.28;4.35;;;;;;;;;;10314254;28;20044;-63
2022/09/05 02:10:09;;;;;;;5.07;4.57;;;;;;;;;;10313769;28;20048;-63
2022/09/05 02:15:14;;;;;;;6.95;4.10;;;;;;;;;;10297698;28;20084;-64
2022/09/05 02:20:15;;;;;;;5.05;4.55;;;;;;;;;;10298360;28;20064;-64
2022/09/05 02:25:26;;;;;;;6.30;4.40;;;;;;;;;;10299508;28;20515;-60
2022/09/05 02:30:53;;;;;;;5.43;4.93;;;;;;;;;;10301728;28;20087;-63
2022/09/05 02:36:13;;;;;;;5.15;4.03;;;;;;;;;;10309112;28;20080;-63
2022/09/05 02:41:19;;;;;;;5.85;4.45;;;;;;;;;;10312367;28;20510;-63
2022/09/05 02:46:45;;;;;;;11.10;4.72;;;;;;;;;;10318066;28;20064;-63
2022/09/05 02:51:48;;;;;;;11.43;4.72;;;;;;;;;;10315892;28;20076;-63
2022/09/05 02:57:28;;;;;;;5.05;4.53;;;;;;;;;;10304804;28;20076;-63
2022/09/05 03:02:58;;;;;;;6.53;4.47;;;;;;;;;;10299085;28;20077;-64
2022/09/05 03:08:13;;;;;;;7.72;4.63;;;;;;;;;;10305609;28;20049;-63
2022/09/05 03:13:32;;;;;;;12.32;5.22;;;;;;;;;;10305229;28;20088;-63
2022/09/05 03:19:01;;;;;;;10.35;5.10;;;;;;;;;;10298770;28;20084;-63
2022/09/05 03:24:14;;;;;;;8.00;5.20;;;;;;;;;;10305399;28;20501;-63
2022/09/05 03:29:27;;;;;;;4.38;3.97;;;;;;;;;;10305521;28;20080;-62
2022/09/05 03:34:36;;;;;;;10.10;4.70;;;;;;;;;;10261972;28;20140;-64
2022/09/05 03:39:53;;;;;;;5.43;4.93;;;;;;;;;;10301475;28;20064;-63
2022/09/05 03:45:04;;;;;;;8.35;4.82;;;;;;;;;;10304450;28;20066;-63
2022/09/05 03:50:13;;;;;;;11.68;5.43;;;;;;;;;;10305047;28;20502;-63
2022/09/05 03:55:35;;;;;;;9.45;4.28;;;;;;;;;;10304708;28;20072;-63
2022/09/05 04:01:02;;;;;;;10.80;5.82;;;;;;;;;;10304756;28;20080;-63
2022/09/05 04:06:26;;;;;;;7.95;4.85;;;;;;;;;;10305248;28;20068;-63
2022/09/05 04:11:47;;;;;;;7.78;4.97;;;;;;;;;;10303828;28;20091;-63
2022/09/05 04:16:48;;;;;;;5.45;4.72;;;;;;;;;;10304476;28;20076;-62
2022/09/05 04:21:49;;;;;;;9.88;4.88;;;;;;;;;;10304365;28;20076;-63
2022/09/05 04:26:59;;;;;;;8.75;5.20;;;;;;;;;;10299008;28;20109;-63
2022/09/05 04:32:01;;;;;;;4.40;3.97;;;;;;;;;;10308256;28;20095;-63
2022/09/05 04:37:32;;;;;;;31.73;24.40;;;;;;;;;;10304607;28;20065;-64
2022/09/05 04:42:45;;;;;;;88.47;78.53;;;;;;;;;;10299268;28;20084;-64
2022/09/05 04:47:49;;;;;;;33.63;30.02;;;;;;;;;;10295269;28;20068;-63
2022/09/05 04:53:02;;;;;;;30.52;27.27;;;;;;;;;;10296559;28;20085;-63
2022/09/05 04:58:04;;;;;;;46.25;35.22;;;;;;;;;;10295086;28;20045;-63
2022/09/05 05:03:03;;;;;;;38.90;30.80;;;;;;;;;;10300140;28;20080;-63
2022/09/05 05:08:24;;;;;;;29.20;21.50;;;;;;;;;;10301364;28;20048;-63
2022/09/05 05:13:42;;;;;;;26.97;17.43;;;;;;;;;;10301220;28;20075;-63
2022/09/05 05:19:06;;;;;;;16.90;7.53;;;;;;;;;;10300492;28;20076;-63
2022/09/05 05:24:19;;;;;;;16.40;7.03;;;;;;;;;;10300001;28;20048;-63
2022/09/05 05:29:22;;;;;;;14.40;6.45;;;;;;;;;;10300302;28;20479;-62
2022/09/05 05:34:23;;;;;;;14.13;8.60;;;;;;;;;;10300344;28;20533;-63
2022/09/05 05:39:24;;;;;;;12.18;6.55;;;;;;;;;;10300933;28;20053;-63
2022/09/05 05:44:26;;;;;;;16.88;6.70;;;;;;;;;;10291793;28;20071;-63
2022/09/05 05:49:39;;;;;;;15.65;8.70;;;;;;;;;;10299173;28;20080;-64
2022/09/05 05:54:42;;;;;;;15.73;6.32;;;;;;;;;;10300672;28;20068;-63
2022/09/05 05:59:57;;;;;;;19.33;6.57;;;;;;;;;;10310182;28;20064;-63
2022/09/05 06:05:24;;;;;;;17.23;8.68;;;;;;;;;;10302976;28;20079;-63
2022/09/05 06:10:43;;;;;;;13.15;7.43;;;;;;;;;;10309699;28;20072;-63
2022/09/05 06:16:20;;;;;;;18.45;7.63;;;;;;;;;;10314159;28;20075;-62
2022/09/05 06:21:35;;;;;;;17.98;7.82;;;;;;;;;;10310352;28;20076;-63
2022/09/05 06:27:14;;;;;;;13.55;8.15;;;;;;;;;;10303532;28;20065;-63
2022/09/05 06:32:23;;;;;;;14.43;7.72;;;;;;;;;;10310338;28;20533;-62
2022/09/05 06:37:26;;;;;;;11.82;7.57;;;;;;;;;;10305381;28;20068;-64
2022/09/05 06:42:29;;;;;;;13.97;8.20;;;;;;;;;;10306199;28;20057;-64
2022/09/05 06:47:43;;;;;;;17.17;8.52;;;;;;;;;;10307566;28;20060;-64
2022/09/05 06:53:14;;;;;;;14.15;7.40;;;;;;;;;;10308966;28;20599;-63
2022/09/05 06:58:42;;;;;;;15.07;8.52;;;;;;;;;;10138714;28;20077;-64
2022/09/05 07:03:49;;;;;;;9.45;8.23;;;;;;;;;;10279377;28;20491;-64
2022/09/05 07:08:52;;;;;;;13.07;7.85;;;;;;;;;;10309346;28;20064;-64
2022/09/05 07:13:56;;;;;;;11.77;7.00;;;;;;;;;;10318368;28;20080;-64
2022/09/05 07:19:00;;;;;;;13.70;6.50;;;;;;;;;;10319012;28;20043;-64
2022/09/05 07:24:02;;;;;;;10.48;6.28;;;;;;;;;;10302219;28;20059;-64
2022/09/05 07:29:07;;;;;;;14.45;6.95;;;;;;;;;;10318759;28;20442;-62
2022/09/05 07:34:10;;;;;;;13.65;6.13;;;;;;;;;;10318124;28;20474;-64
2022/09/05 07:39:20;;;;;;;8.32;5.10;;;;;;;;;;10317703;28;20067;-63
2022/09/05 07:44:29;;;;;;;8.88;5.40;;;;;;;;;;10300402;28;20064;-63
2022/09/05 07:49:30;;;;;;;8.13;4.47;;;;;;;;;;10316420;28;20446;-63
2022/09/05 07:54:30;;;;;;;11.20;5.10;;;;;;;;;;10316299;28;20075;-63
2022/09/05 07:59:50;;;;;;;7.70;5.07;;;;;;;;;;10316482;28;20057;-63
2022/09/05 08:04:50;;;;;;;7.90;4.30;;;;;;;;;;10307324;28;20064;-63
2022/09/05 08:09:49;;;;;;;7.03;4.97;;;;;;;;;;10308612;28;20069;-64
2022/09/05 08:15:08;;;;;;;4.68;3.90;;;;;;;;;;10307320;28;20072;-64
2022/09/05 08:20:20;;;;;;;4.55;3.67;;;;;;;;;;10303466;28;20081;-63
2022/09/05 08:25:21;;;;;;;6.05;4.40;;;;;;;;;;10316622;28;20052;-62
2022/09/05 08:30:20;;;;;;;8.63;5.57;;;;;;;;;;10316374;28;20450;-64
2022/09/05 08:35:27;;;;;;;10.68;8.60;;;;;;;;;;10314768;28;20090;-63
2022/09/05 08:40:28;;;;;;;6.18;3.72;;;;;;;;;;10308254;28;20510;-63
2022/09/05 08:45:36;;;;;;;7.43;6.55;;;;;;;;;;10307610;28;20071;-63
2022/09/05 08:51:02;;;;;;;4.05;3.65;;;;;;;;;;10304662;28;20072;-63
2022/09/05 08:56:03;;;;;;;14.00;8.82;;;;;;;;;;10303934;28;20083;-64
2022/09/05 09:01:11;;;;;;;8.35;5.90;;;;;;;;;;10304356;28;20068;-63
2022/09/05 09:06:18;;;;;;;6.18;5.15;;;;;;;;;;10298302;28;20065;-63
2022/09/05 09:11:26;;;;;;;5.20;4.70;;;;;;;;;;10300142;28;20072;-63
2022/09/05 09:16:29;;;;;;;8.35;5.22;;;;;;;;;;10309596;28;20086;-63
2022/09/05 09:21:32;;;;;;;6.55;4.78;;;;;;;;;;10314634;28;20045;-63
2022/09/05 09:26:35;;;;;;;22.15;19.70;;;;;;;;;;10315880;28;20540;-63
2022/09/05 09:31:41;;;;;;;6.47;5.00;;;;;;;;;;10304694;28;20497;-61
2022/09/05 09:36:54;;;;;;;9.05;7.35;;;;;;;;;;10298391;28;20076;-63
2022/09/05 09:42:14;;;;;;;12.00;10.73;;;;;;;;;;10312303;28;20059;-63
2022/09/05 09:47:54;;;;;;;5.03;3.90;;;;;;;;;;10328951;28;20040;-63
2022/09/05 09:53:00;;;;;;;6.03;4.20;;;;;;;;;;10308609;28;20080;-63
2022/09/05 09:58:11;;;;;;;4.45;4.05;;;;;;;;;;10311288;28;20075;-64
2022/09/05 10:03:30;;;;;;;11.32;7.88;;;;;;;;;;10314896;28;20068;-63
2022/09/05 10:09:00;;;;;;;6.43;3.90;;;;;;;;;;10310763;28;20048;-63
2022/09/05 10:14:37;;;;;;;10.27;6.32;;;;;;;;;;10312213;28;20091;-63
2022/09/05 10:20:03;;;;;;;14.50;11.23;;;;;;;;;;10307031;28;20075;-63
2022/09/05 10:25:20;;;;;;;8.32;5.75;;;;;;;;;;10307622;28;20087;-63
2022/09/05 10:30:20;;;;;;;8.25;4.45;;;;;;;;;;10308453;28;20502;-63
2022/09/05 10:35:42;;;;;;;7.50;5.50;;;;;;;;;;10311477;28;20084;-63
2022/09/05 10:40:43;;;;;;;5.68;4.68;;;;;;;;;;10326512;28;20067;-63
2022/09/05 10:46:05;;;;;;;9.10;4.75;;;;;;;;;;10328191;28;20052;-63
2022/09/05 10:51:13;;;;;;;9.15;8.15;;;;;;;;;;10313961;28;20032;-62
2022/09/05 10:56:29;;;;;;;8.38;4.32;;;;;;;;;;10306886;28;20072;-63
2022/09/05 11:01:32;;;;;;;4.38;3.97;;;;;;;;;;10305354;28;20074;-63
2022/09/05 11:06:53;;;;;;;7.57;4.35;;;;;;;;;;10309588;28;20095;-63
2022/09/05 11:11:58;;;;;;;5.93;3.72;;;;;;;;;;10303460;28;20080;-63
2022/09/05 11:17:02;;;;;;;4.53;4.13;;;;;;;;;;10302095;28;20584;-63
2022/09/05 11:22:02;;;;;;;7.57;4.32;;;;;;;;;;10302001;28;20076;-64
2022/09/05 11:27:26;;;;;;;4.28;3.88;;;;;;;;;;10303211;28;20088;-63
2022/09/05 11:32:39;;;;;;;5.78;3.50;;;;;;;;;;10303617;28;20099;-63
2022/09/05 11:38:13;;;;;;;5.15;3.85;;;;;;;;;;10305953;28;20103;-63
2022/09/05 11:43:49;;;;;;;7.63;4.65;;;;;;;;;;10303017;28;20068;-63
2022/09/05 11:49:07;;;;;;;4.85;4.32;;;;;;;;;;10300889;28;20072;-63
2022/09/05 11:54:25;;;;;;;4.65;3.97;;;;;;;;;;10303542;28;20072;-64
2022/09/05 11:59:38;;;;;;;9.43;4.57;;;;;;;;;;10302945;28;20556;-63
2022/09/05 12:04:50;;;;;;;10.15;4.55;;;;;;;;;;10298199;28;20071;-64
2022/09/05 12:10:14;;;;;;;4.38;3.50;;;;;;;;;;10318210;28;20044;-64
2022/09/05 12:15:33;;;;;;;8.32;5.50;;;;;;;;;;10317522;28;20079;-64
2022/09/05 12:20:45;;;;;;;6.70;3.35;;;;;;;;;;10314951;28;20072;-62
2022/09/05 12:25:49;;;;;;;5.32;3.92;;;;;;;;;;10304565;28;20040;-63
2022/09/05 12:31:15;;;;;;;7.22;4.72;;;;;;;;;;10317165;28;20056;-63
2022/09/05 12:36:38;;;;;;;3.88;3.17;;;;;;;;;;10315458;28;20083;-63
2022/09/05 12:42:01;;;;;;;3.15;2.85;;;;;;;;;;10304626;28;20076;-63
2022/09/05 12:47:18;;;;;;;6.10;2.92;;;;;;;;;;10309492;28;20075;-63
2022/09/05 12:52:27;;;;;;;3.95;3.28;;;;;;;;;;10304912;28;20067;-64
2022/09/05 12:57:27;;;;;;;5.53;4.05;;;;;;;;;;10301300;28;20080;-64
2022/09/05 13:02:50;;;;;;;6.85;3.40;;;;;;;;;;10298551;28;20465;-64
2022/09/05 13:08:11;;;;;;;4.03;3.63;;;;;;;;;;10294915;28;20083;-62
2022/09/05 13:13:11;;;;;;;6.07;5.25;;;;;;;;;;10314184;28;20064;-64
2022/09/05 13:18:37;;;;;;;5.97;3.85;;;;;;;;;;10314385;28;20076;-64
2022/09/05 13:23:39;;;;;;;6.53;3.00;;;;;;;;;;10296926;28;20496;-64
2022/09/05 13:28:42;;;;;;;6.40;3.92;;;;;;;;;;10297953;28;20078;-63
2022/09/05 13:33:44;;;;;;;6.30;4.25;;;;;;;;;;10297589;28;20477;-64
2022/09/05 13:39:03;;;;;;;7.53;4.45;;;;;;;;;;10299068;28;20080;-63
2022/09/05 13:44:09;;;;;;;5.07;3.95;;;;;;;;;;10299780;28;20182;-64
2022/09/05 13:49:27;;;;;;;7.40;3.38;;;;;;;;;;10305866;28;20068;-65
2022/09/05 13:54:43;;;;;;;3.53;3.20;;;;;;;;;;10314250;28;20064;-64
2022/09/05 14:00:02;;;;;;;4.97;3.42;;;;;;;;;;10313750;28;20044;-64
2022/09/05 14:05:18;;;;;;;7.05;4.70;;;;;;;;;;10296556;28;20079;-64
2022/09/05 14:10:31;;;;;;;5.72;4.63;;;;;;;;;;10299141;28;20496;-64
2022/09/05 14:15:35;;;;;;;6.45;3.88;;;;;;;;;;10295909;28;20072;-63
2022/09/05 14:25:54;;;;;;;4.80;4.13;;;;;;;;;;10299900;28;20068;-62
2022/09/05 14:30:53;;;;;;;4.55;3.95;;;;;;;;;;10303024;28;20041;-63
2022/09/05 14:36:16;;;;;;;3.33;3.03;;;;;;;;;;10308226;28;20068;-63
2022/09/05 14:41:42;;;;;;;6.03;4.15;;;;;;;;;;10314176;28;20075;-64
2022/09/05 14:47:17;;;;;;;4.93;4.15;;;;;;;;;;10321698;28;20072;-64
2022/09/05 14:52:33;;;;;;;11.32;6.40;;;;;;;;;;10320692;28;20048;-63
2022/09/05 14:57:43;;;;;;;5.32;4.30;;;;;;;;;;10304703;28;20088;-64
2022/09/05 15:03:01;;;;;;;8.30;4.13;;;;;;;;;;10300637;28;20053;-63
2022/09/05 15:08:04;;;;;;;5.95;4.03;;;;;;;;;;10305534;28;20064;-63
2022/09/05 15:13:23;;;;;;;8.82;4.97;;;;;;;;;;10302123;28;20075;-64
2022/09/05 15:18:25;;;;;;;6.85;6.05;;;;;;;;;;10302097;28;20079;-62
2022/09/05 15:23:31;;;;;;;8.10;4.68;;;;;;;;;;10303505;28;20180;-62
2022/09/05 15:28:34;;;;;;;14.55;6.70;;;;;;;;;;10303041;28;20083;-64
2022/09/05 15:33:32;;;;;;;6.60;4.65;;;;;;;;;;10302648;28;20492;-64
2022/09/05 15:38:33;;;;;;;8.20;4.95;;;;;;;;;;10318511;28;20072;-62
2022/09/05 15:44:03;;;;;;;8.30;6.05;;;;;;;;;;10313654;28;20059;-64
2022/09/05 15:49:09;;;;;;;10.27;6.68;;;;;;;;;;10302169;28;20076;-63
2022/09/05 15:54:09;;;;;;;6.25;4.93;;;;;;;;;;10302660;28;20052;-63
2022/09/05 15:59:29;;;;;;;7.60;5.75;;;;;;;;;;10297071;28;20087;-65
2022/09/05 16:04:28;;;;;;;13.73;4.93;;;;;;;;;;10311497;28;20152;-64
2022/09/05 16:09:49;;;;;;;6.70;4.75;;;;;;;;;;10317176;28;20421;-64
2022/09/05 16:15:12;;;;;;;10.45;6.13;;;;;;;;;;10318181;28;20077;-63
2022/09/05 16:20:32;;;;;;;7.07;5.90;;;;;;;;;;10302850;28;20072;-63
2022/09/05 16:25:51;;;;;;;12.68;8.75;;;;;;;;;;10303100;28;20060;-63
2022/09/05 16:30:52;;;;;;;10.77;5.10;;;;;;;;;;10294879;28;20051;-63
2022/09/05 16:35:54;;;;;;;21.23;13.47;;;;;;;;;;10299303;28;20076;-64
2022/09/05 16:40:54;;;;;;;7.22;4.53;;;;;;;;;;10301865;28;20048;-66
2022/09/05 16:45:57;;;;;;;5.15;4.10;;;;;;;;;;10300643;28;20458;-67
2022/09/05 16:50:58;;;;;;;9.68;4.85;;;;;;;;;;10316248;28;20048;-66
2022/09/05 16:56:12;;;;;;;6.03;4.30;;;;;;;;;;10315332;28;20071;-67
2022/09/05 17:01:30;;;;;;;9.40;5.38;;;;;;;;;;10313970;28;20071;-66
2022/09/05 17:06:34;;;;;;;6.05;4.32;;;;;;;;;;10306794;28;20075;-66
2022/09/05 17:11:37;;;;;;;6.72;5.10;;;;;;;;;;10301597;28;20060;-67
2022/09/05 17:17:00;;;;;;;5.70;4.55;;;;;;;;;;10298197;28;20085;-66
2022/09/05 17:22:20;;;;;;;7.95;4.90;;;;;;;;;;10298422;28;20532;-65
2022/09/05 17:27:38;;;;;;;6.93;4.25;;;;;;;;;;10299542;28;20083;-66
2022/09/05 17:32:58;;;;;;;5.30;3.60;;;;;;;;;;10295536;28;20179;-66
2022/09/05 17:38:14;;;;;;;10.35;4.82;;;;;;;;;;10298042;28;20517;-66
2022/09/05 17:43:13;;;;;;;6.97;5.40;;;;;;;;;;10298365;28;20052;-66
2022/09/05 17:48:40;;;;;;;9.77;6.22;;;;;;;;;;10300208;28;20079;-67
2022/09/05 17:54:14;;;;;;;9.80;5.38;;;;;;;;;;10282980;28;20088;-67
2022/09/05 17:59:25;;;;;;;6.43;4.78;;;;;;;;;;10299978;28;20498;-67
2022/09/05 18:04:44;;;;;;;6.55;4.65;;;;;;;;;;10302111;28;20067;-67
2022/09/05 18:09:57;;;;;;;5.88;4.28;;;;;;;;;;10318703;28;20059;-66
2022/09/05 18:15:15;;;;;;;5.47;3.90;;;;;;;;;;10322959;28;20395;-65
2022/09/05 18:20:15;;;;;;;4.70;3.25;;;;;;;;;;10308029;28;20068;-66
2022/09/05 18:25:18;;;;;;;4.10;3.60;;;;;;;;;;10309596;28;20043;-66
2022/09/05 18:30:34;;;;;;;5.18;3.97;;;;;;;;;;10307749;28;20052;-64
2022/09/05 18:35:39;;;;;;;5.40;2.95;;;;;;;;;;10307632;28;20537;-66
2022/09/05 18:40:44;;;;;;;8.18;4.20;;;;;;;;;;10321297;28;20474;-68
2022/09/05 18:45:45;;;;;;;8.85;2.97;;;;;;;;;;10321544;28;20049;-66
2022/09/05 18:50:50;;;;;;;4.40;3.05;;;;;;;;;;10316276;28;20187;-67
2022/09/05 18:56:18;;;;;;;5.13;3.90;;;;;;;;;;10305251;28;20129;-67
2022/09/05 19:01:24;;;;;;;7.18;5.00;;;;;;;;;;10303438;28;20079;-67
2022/09/05 19:06:27;;;;;;;6.15;2.72;;;;;;;;;;10307453;28;20071;-67
2022/09/05 19:11:37;;;;;;;5.65;3.25;;;;;;;;;;10307781;28;20049;-67
2022/09/05 19:16:50;;;;;;;2.67;2.42;;;;;;;;;;10302594;28;20061;-65
2022/09/05 19:21:51;;;;;;;2.70;2.50;;;;;;;;;;10304546;28;20057;-67
2022/09/05 19:27:12;;;;;;;3.28;2.65;;;;;;;;;;10303650;28;20092;-68
2022/09/05 19:32:30;;;;;;;2.90;2.50;;;;;;;;;;10304390;28;20083;-67
2022/09/05 19:37:50;;;;;;;3.38;1.85;;;;;;;;;;10298368;28;20080;-68
2022/09/05 19:42:50;;;;;;;3.88;2.75;;;;;;;;;;10305263;28;20483;-67
2022/09/05 19:48:17;;;;;;;3.20;2.60;;;;;;;;;;10304120;28;20091;-66
2022/09/05 19:53:16;;;;;;;8.35;2.50;;;;;;;;;;10303624;28;20148;-67
2022/09/05 19:58:18;;;;;;;2.95;2.47;;;;;;;;;;10304019;28;20088;-67
2022/09/05 20:03:21;;;;;;;2.83;2.10;;;;;;;;;;10303406;28;20145;-67
2022/09/05 20:08:29;;;;;;;5.03;2.25;;;;;;;;;;10301988;28;20473;-68
2022/09/05 20:13:28;;;;;;;7.20;2.58;;;;;;;;;;10315655;28;20060;-67
2022/09/05 20:18:33;;;;;;;5.45;2.58;;;;;;;;;;10316261;28;20076;-67
2022/09/05 20:23:32;;;;;;;3.17;2.88;;;;;;;;;;10317283;28;20552;-66
2022/09/05 20:28:34;;;;;;;3.15;2.28;;;;;;;;;;10313967;28;20064;-67
2022/09/05 20:33:40;;;;;;;2.45;2.25;;;;;;;;;;10299379;28;20505;-67
2022/09/05 20:38:40;;;;;;;2.72;2.42;;;;;;;;;;10303429;28;20068;-67
2022/09/05 20:44:16;;;;;;;4.20;2.40;;;;;;;;;;10302579;28;20115;-66
2022/09/05 20:49:22;;;;;;;4.78;2.75;;;;;;;;;;10302813;28;20076;-66
2022/09/05 20:54:42;;;;;;;3.45;2.63;;;;;;;;;;10299797;28;20068;-66
2022/09/05 20:59:43;;;;;;;5.10;2.67;;;;;;;;;;10298953;28;20520;-66
2022/09/05 21:04:52;;;;;;;3.80;3.05;;;;;;;;;;10299870;28;20067;-66
2022/09/05 21:09:54;;;;;;;4.57;2.63;;;;;;;;;;10315084;28;20490;-66
2022/09/05 21:15:13;;;;;;;5.32;2.70;;;;;;;;;;10315303;28;20063;-66
2022/09/05 21:20:36;;;;;;;3.45;2.53;;;;;;;;;;10301212;28;20064;-65
2022/09/05 21:25:48;;;;;;;3.67;2.50;;;;;;;;;;10301779;28;20036;-66
2022/09/05 21:30:46;;;;;;;7.63;2.70;;;;;;;;;;10301357;28;20060;-66
2022/09/05 21:35:48;;;;;;;2.97;2.70;;;;;;;;;;10301514;28;20514;-65
2022/09/05 21:40:49;;;;;;;4.72;2.67;;;;;;;;;;10284151;28;20075;-66
2022/09/05 21:45:52;;;;;;;3.92;3.17;;;;;;;;;;10314390;28;20055;-67
2022/09/05 21:51:14;;;;;;;7.47;2.72;;;;;;;;;;10311426;28;20083;-67
2022/09/05 21:56:15;;;;;;;4.38;2.90;;;;;;;;;;10292206;28;20088;-67
2022/09/05 22:01:34;;;;;;;2.65;2.33;;;;;;;;;;10293014;28;20080;-67
2022/09/05 22:06:52;;;;;;;3.42;2.90;;;;;;;;;;10307247;28;20498;-67
2022/09/05 22:11:51;;;;;;;3.08;2.60;;;;;;;;;;10313643;28;20080;-67
2022/09/05 22:16:50;;;;;;;4.32;2.65;;;;;;;;;;10302926;28;20075;-67
2022/09/05 22:21:48;;;;;;;3.25;2.15;;;;;;;;;;10298758;28;20080;-68
2022/09/05 22:26:53;;;;;;;2.20;2.00;;;;;;;;;;10301011;28;20072;-65
2022/09/05 22:32:10;;;;;;;3.78;2.97;;;;;;;;;;10295811;28;20076;-65
2022/09/05 22:37:09;;;;;;;4.88;2.20;;;;;;;;;;10303600;28;20783;-65
2022/09/05 22:42:09;;;;;;;2.58;2.25;;;;;;;;;;10304884;28;20068;-66
2022/09/05 22:47:08;;;;;;;3.95;2.13;;;;;;;;;;10303965;28;20055;-66
2022/09/05 22:52:07;;;;;;;5.57;3.20;;;;;;;;;;10307716;28;20064;-66
2022/09/05 22:57:05;;;;;;;4.13;2.20;;;;;;;;;;10312368;28;20079;-66
2022/09/05 23:02:05;;;;;;;3.95;2.53;;;;;;;;;;10311777;28;20077;-66
2022/09/05 23:07:03;;;;;;;4.45;2.53;;;;;;;;;;10308514;28;20060;-67
2022/09/05 23:12:02;;;;;;;2.20;2.00;;;;;;;;;;10305919;28;20064;-67
2022/09/05 23:17:00;;;;;;;2.90;2.17;;;;;;;;;;10308695;28;20076;-65
2022/09/05 23:22:00;;;;;;;6.10;2.42;;;;;;;;;;10301106;28;20073;-66
2022/09/05 23:26:59;;;;;;;4.07;2.20;;;;;;;;;;10301607;28;20095;-67
2022/09/05 23:31:57;;;;;;;2.53;2.28;;;;;;;;;;10308981;28;20079;-67
2022/09/05 23:36:55;;;;;;;6.70;2.25;;;;;;;;;;10305243;28;20075;-66
2022/09/05 23:41:55;;;;;;;2.38;2.17;;;;;;;;;;10300360;28;20076;-65
2022/09/05 23:46:53;;;;;;;2.58;2.20;;;;;;;;;;10305868;28;20067;-65
2022/09/05 23:51:51;;;;;;;6.93;2.90;;;;;;;;;;10303354;28;20076;-66
2022/09/05 23:56:50;;;;;;;7.05;2.47;;;;;;;;;;10304966;28;20567;-65
